sensor_id;sensor_type;location;lat;lon;timestamp;temperature;humidity
16229;DHT22;8222;51.462;12.630;2023-08-30T00:00:28;16.70;99.90
16229;DHT22;8222;51.462;12.630;2023-08-30T00:02:54;16.60;99.90
16229;DHT22;8222;51.462;12.630;2023-08-30T00:05:22;16.60;99.90
16229;DHT22;8222;51.462;12.630;2023-08-30T00:07:48;16.60;99.90
16229;DHT22;8222;51.462;12.630;2023-08-30T00:10:17;16.60;99.90
16229;DHT22;8222;51.462;12.630;2023-08-30T00:12:42;16.60;99.90
16229;DHT22;8222;51.462;12.630;2023-08-30T00:15:10;16.70;99.90
16229;DHT22;8222;51.462;12.630;2023-08-30T00:17:39;16.60;99.90
16229;DHT22;8222;51.462;12.630;2023-08-30T00:20:05;16.60;99.90
16229;DHT22;8222;51.462;12.630;2023-08-30T00:22:32;16.60;99.90
16229;DHT22;8222;51.462;12.630;2023-08-30T00:25:01;16.70;99.90
16229;DHT22;8222;51.462;12.630;2023-08-30T00:27:31;16.60;99.90
16229;DHT22;8222;51.462;12.630;2023-08-30T00:29:59;16.60;99.90
16229;DHT22;8222;51.462;12.630;2023-08-30T00:32:27;16.60;99.90
16229;DHT22;8222;51.462;12.630;2023-08-30T00:35:01;16.60;99.90
16229;DHT22;8222;51.462;12.630;2023-08-30T00:37:29;16.70;99.90
16229;DHT22;8222;51.462;12.630;2023-08-30T00:39:57;16.70;99.90
16229;DHT22;8222;51.462;12.630;2023-08-30T00:42:25;16.70;99.90
16229;DHT22;8222;51.462;12.630;2023-08-30T00:44:53;16.60;99.90
16229;DHT22;8222;51.462;12.630;2023-08-30T00:47:22;16.60;99.90
16229;DHT22;8222;51.462;12.630;2023-08-30T00:49:50;16.50;99.90
16229;DHT22;8222;51.462;12.630;2023-08-30T00:52:18;16.50;99.90
16229;DHT22;8222;51.462;12.630;2023-08-30T00:54:53;16.40;99.90
16229;DHT22;8222;51.462;12.630;2023-08-30T00:57:19;16.40;99.90
16229;DHT22;8222;51.462;12.630;2023-08-30T00:59:50;16.40;99.90
16229;DHT22;8222;51.462;12.630;2023-08-30T01:02:17;16.40;99.90
16229;DHT22;8222;51.462;12.630;2023-08-30T01:04:42;16.50;99.90
16229;DHT22;8222;51.462;12.630;2023-08-30T01:07:08;16.40;99.90
16229;DHT22;8222;51.462;12.630;2023-08-30T01:09:34;16.40;99.90
16229;DHT22;8222;51.462;12.630;2023-08-30T01:12:43;16.50;99.90
16229;DHT22;8222;51.462;12.630;2023-08-30T01:15:15;16.50;99.90
16229;DHT22;8222;51.462;12.630;2023-08-30T01:17:42;16.40;99.90
16229;DHT22;8222;51.462;12.630;2023-08-30T01:20:17;16.40;99.90
16229;DHT22;8222;51.462;12.630;2023-08-30T01:28:26;16.40;99.90
16229;DHT22;8222;51.462;12.630;2023-08-30T01:30:54;16.40;99.90
16229;DHT22;8222;51.462;12.630;2023-08-30T01:33:20;16.30;99.90
16229;DHT22;8222;51.462;12.630;2023-08-30T01:35:47;16.40;99.90
16229;DHT22;8222;51.462;12.630;2023-08-30T01:38:14;16.60;99.90
16229;DHT22;8222;51.462;12.630;2023-08-30T01:40:46;16.50;99.90
16229;DHT22;8222;51.462;12.630;2023-08-30T01:43:17;16.80;99.90
16229;DHT22;8222;51.462;12.630;2023-08-30T01:45:43;16.50;99.90
16229;DHT22;8222;51.462;12.630;2023-08-30T01:48:13;16.50;99.90
16229;DHT22;8222;51.462;12.630;2023-08-30T01:50:48;16.40;99.90
16229;DHT22;8222;51.462;12.630;2023-08-30T01:53:19;16.40;99.90
16229;DHT22;8222;51.462;12.630;2023-08-30T01:55:45;16.40;99.90
16229;DHT22;8222;51.462;12.630;2023-08-30T01:58:15;16.50;99.90
16229;DHT22;8222;51.462;12.630;2023-08-30T02:00:43;16.50;99.90
16229;DHT22;8222;51.462;12.630;2023-08-30T02:03:15;16.50;99.90
16229;DHT22;8222;51.462;12.630;2023-08-30T02:06:04;16.30;99.90
16229;DHT22;8222;51.462;12.630;2023-08-30T02:08:44;16.50;99.90
16229;DHT22;8222;51.462;12.630;2023-08-30T02:11:21;16.50;99.90
16229;DHT22;8222;51.462;12.630;2023-08-30T02:13:52;16.50;99.90
16229;DHT22;8222;51.462;12.630;2023-08-30T02:16:21;16.50;99.90
16229;DHT22;8222;51.462;12.630;2023-08-30T02:18:50;16.50;99.90
16229;DHT22;8222;51.462;12.630;2023-08-30T02:21:16;16.50;99.90
16229;DHT22;8222;51.462;12.630;2023-08-30T02:23:44;16.50;99.90
16229;DHT22;8222;51.462;12.630;2023-08-30T02:26:12;16.50;99.90
16229;DHT22;8222;51.462;12.630;2023-08-30T02:28:40;16.50;99.90
16229;DHT22;8222;51.462;12.630;2023-08-30T02:31:12;16.50;99.90
16229;DHT22;8222;51.462;12.630;2023-08-30T02:33:41;16.50;99.90
16229;DHT22;8222;51.462;12.630;2023-08-30T02:36:09;16.40;99.90
16229;DHT22;8222;51.462;12.630;2023-08-30T02:38:39;16.50;99.90
16229;DHT22;8222;51.462;12.630;2023-08-30T02:41:05;16.50;99.90
16229;DHT22;8222;51.462;12.630;2023-08-30T02:43:33;16.40;99.90
16229;DHT22;8222;51.462;12.630;2023-08-30T02:46:06;16.40;99.90
16229;DHT22;8222;51.462;12.630;2023-08-30T02:48:36;16.40;99.90
16229;DHT22;8222;51.462;12.630;2023-08-30T02:51:02;16.40;99.90
16229;DHT22;8222;51.462;12.630;2023-08-30T02:53:28;16.50;99.90
16229;DHT22;8222;51.462;12.630;2023-08-30T02:55:56;16.40;99.90
16229;DHT22;8222;51.462;12.630;2023-08-30T02:58:24;16.40;99.90
16229;DHT22;8222;51.462;12.630;2023-08-30T03:00:49;16.40;99.90
16229;DHT22;8222;51.462;12.630;2023-08-30T03:03:17;16.40;99.90
16229;DHT22;8222;51.462;12.630;2023-08-30T03:05:43;16.50;99.90
16229;DHT22;8222;51.462;12.630;2023-08-30T03:08:09;16.50;99.90
16229;DHT22;8222;51.462;12.630;2023-08-30T03:10:34;16.50;99.90
16229;DHT22;8222;51.462;12.630;2023-08-30T03:13:00;16.50;99.90
16229;DHT22;8222;51.462;12.630;2023-08-30T03:15:26;16.50;99.90
16229;DHT22;8222;51.462;12.630;2023-08-30T03:17:54;16.50;99.90
16229;DHT22;8222;51.462;12.630;2023-08-30T03:20:19;16.50;99.90
16229;DHT22;8222;51.462;12.630;2023-08-30T03:22:45;16.50;99.90
16229;DHT22;8222;51.462;12.630;2023-08-30T03:25:13;16.50;99.90
16229;DHT22;8222;51.462;12.630;2023-08-30T03:27:39;16.60;99.90
16229;DHT22;8222;51.462;12.630;2023-08-30T03:30:05;16.60;99.90
16229;DHT22;8222;51.462;12.630;2023-08-30T03:32:37;16.60;99.90
16229;DHT22;8222;51.462;12.630;2023-08-30T03:35:04;16.70;99.90
16229;DHT22;8222;51.462;12.630;2023-08-30T03:37:32;16.80;99.90
16229;DHT22;8222;51.462;12.630;2023-08-30T03:40:00;16.70;99.90
16229;DHT22;8222;51.462;12.630;2023-08-30T03:42:26;16.70;99.90
16229;DHT22;8222;51.462;12.630;2023-08-30T03:44:51;16.70;99.90
16229;DHT22;8222;51.462;12.630;2023-08-30T03:47:17;16.60;99.90
16229;DHT22;8222;51.462;12.630;2023-08-30T03:49:45;16.60;99.90
16229;DHT22;8222;51.462;12.630;2023-08-30T03:52:15;16.70;99.90
16229;DHT22;8222;51.462;12.630;2023-08-30T03:54:41;16.70;99.90
16229;DHT22;8222;51.462;12.630;2023-08-30T03:57:06;16.60;99.90
16229;DHT22;8222;51.462;12.630;2023-08-30T03:59:32;16.60;99.90
16229;DHT22;8222;51.462;12.630;2023-08-30T04:02:00;16.60;99.90
16229;DHT22;8222;51.462;12.630;2023-08-30T04:04:28;16.50;99.90
16229;DHT22;8222;51.462;12.630;2023-08-30T04:06:56;16.50;99.90
16229;DHT22;8222;51.462;12.630;2023-08-30T04:09:24;16.50;99.90
16229;DHT22;8222;51.462;12.630;2023-08-30T04:11:50;16.50;99.90
16229;DHT22;8222;51.462;12.630;2023-08-30T04:14:16;16.60;99.90
16229;DHT22;8222;51.462;12.630;2023-08-30T04:16:47;16.50;99.90
16229;DHT22;8222;51.462;12.630;2023-08-30T04:19:18;16.60;99.90
16229;DHT22;8222;51.462;12.630;2023-08-30T04:21:43;16.60;99.90
16229;DHT22;8222;51.462;12.630;2023-08-30T04:24:09;16.60;99.90
16229;DHT22;8222;51.462;12.630;2023-08-30T04:26:37;16.60;99.90
16229;DHT22;8222;51.462;12.630;2023-08-30T04:29:03;16.60;99.90
16229;DHT22;8222;51.462;12.630;2023-08-30T04:31:31;16.70;99.90
16229;DHT22;8222;51.462;12.630;2023-08-30T04:33:59;16.60;99.90
16229;DHT22;8222;51.462;12.630;2023-08-30T04:36:27;16.60;99.90
16229;DHT22;8222;51.462;12.630;2023-08-30T04:38:55;16.60;99.90
16229;DHT22;8222;51.462;12.630;2023-08-30T04:41:20;16.70;99.90
16229;DHT22;8222;51.462;12.630;2023-08-30T04:43:50;16.70;99.90
16229;DHT22;8222;51.462;12.630;2023-08-30T04:46:19;16.70;99.90
16229;DHT22;8222;51.462;12.630;2023-08-30T04:48:47;16.70;99.90
16229;DHT22;8222;51.462;12.630;2023-08-30T04:51:15;16.70;99.90
16229;DHT22;8222;51.462;12.630;2023-08-30T04:53:40;16.60;99.90
16229;DHT22;8222;51.462;12.630;2023-08-30T04:56:16;16.60;99.90
16229;DHT22;8222;51.462;12.630;2023-08-30T04:58:48;16.60;99.90
16229;DHT22;8222;51.462;12.630;2023-08-30T05:01:17;16.60;99.90
16229;DHT22;8222;51.462;12.630;2023-08-30T05:03:43;16.60;99.90
16229;DHT22;8222;51.462;12.630;2023-08-30T05:06:08;16.80;99.90
16229;DHT22;8222;51.462;12.630;2023-08-30T05:08:34;16.80;99.90
16229;DHT22;8222;51.462;12.630;2023-08-30T05:11:02;16.70;99.90
16229;DHT22;8222;51.462;12.630;2023-08-30T05:13:30;16.70;99.90
16229;DHT22;8222;51.462;12.630;2023-08-30T05:15:59;16.70;99.90
16229;DHT22;8222;51.462;12.630;2023-08-30T05:18:27;16.90;99.90
16229;DHT22;8222;51.462;12.630;2023-08-30T05:20:55;16.80;99.90
16229;DHT22;8222;51.462;12.630;2023-08-30T05:23:24;16.80;99.90
16229;DHT22;8222;51.462;12.630;2023-08-30T05:25:52;16.80;99.90
16229;DHT22;8222;51.462;12.630;2023-08-30T05:28:20;16.80;99.90
16229;DHT22;8222;51.462;12.630;2023-08-30T05:30:46;16.80;99.90
16229;DHT22;8222;51.462;12.630;2023-08-30T05:33:12;16.80;99.90
16229;DHT22;8222;51.462;12.630;2023-08-30T05:35:37;16.90;99.90
16229;DHT22;8222;51.462;12.630;2023-08-30T05:38:08;16.90;99.90
16229;DHT22;8222;51.462;12.630;2023-08-30T05:40:39;17.00;99.90
16229;DHT22;8222;51.462;12.630;2023-08-30T05:43:13;17.00;99.90
16229;DHT22;8222;51.462;12.630;2023-08-30T05:45:39;17.00;99.90
16229;DHT22;8222;51.462;12.630;2023-08-30T05:48:09;17.10;99.90
16229;DHT22;8222;51.462;12.630;2023-08-30T05:50:35;17.10;99.90
16229;DHT22;8222;51.462;12.630;2023-08-30T05:53:03;17.10;99.90
16229;DHT22;8222;51.462;12.630;2023-08-30T05:55:29;17.10;99.90
16229;DHT22;8222;51.462;12.630;2023-08-30T05:57:57;17.10;99.90
16229;DHT22;8222;51.462;12.630;2023-08-30T06:00:26;17.10;99.90
16229;DHT22;8222;51.462;12.630;2023-08-30T06:03:00;17.20;99.90
16229;DHT22;8222;51.462;12.630;2023-08-30T06:05:26;17.20;99.90
16229;DHT22;8222;51.462;12.630;2023-08-30T06:07:54;17.30;99.90
16229;DHT22;8222;51.462;12.630;2023-08-30T06:10:23;17.30;99.90
16229;DHT22;8222;51.462;12.630;2023-08-30T06:12:52;17.30;99.90
16229;DHT22;8222;51.462;12.630;2023-08-30T06:15:17;17.40;99.90
16229;DHT22;8222;51.462;12.630;2023-08-30T06:17:45;17.40;99.90
16229;DHT22;8222;51.462;12.630;2023-08-30T06:20:19;17.60;99.90
16229;DHT22;8222;51.462;12.630;2023-08-30T06:22:44;17.50;99.90
16229;DHT22;8222;51.462;12.630;2023-08-30T06:25:13;17.60;99.90
16229;DHT22;8222;51.462;12.630;2023-08-30T06:27:41;17.70;99.90
16229;DHT22;8222;51.462;12.630;2023-08-30T06:30:13;17.80;99.90
16229;DHT22;8222;51.462;12.630;2023-08-30T06:32:39;17.70;99.90
16229;DHT22;8222;51.462;12.630;2023-08-30T06:35:05;17.70;99.90
16229;DHT22;8222;51.462;12.630;2023-08-30T06:37:34;17.70;99.90
16229;DHT22;8222;51.462;12.630;2023-08-30T06:39:59;17.70;99.90
16229;DHT22;8222;51.462;12.630;2023-08-30T06:42:31;17.70;99.90
16229;DHT22;8222;51.462;12.630;2023-08-30T06:45:01;17.80;99.90
16229;DHT22;8222;51.462;12.630;2023-08-30T06:47:29;17.80;99.90
16229;DHT22;8222;51.462;12.630;2023-08-30T06:49:57;17.80;99.90
16229;DHT22;8222;51.462;12.630;2023-08-30T06:52:23;17.80;99.90
16229;DHT22;8222;51.462;12.630;2023-08-30T06:54:49;17.80;99.90
16229;DHT22;8222;51.462;12.630;2023-08-30T06:57:17;17.80;99.90
16229;DHT22;8222;51.462;12.630;2023-08-30T06:59:47;17.90;99.90
16229;DHT22;8222;51.462;12.630;2023-08-30T07:02:12;17.80;99.90
16229;DHT22;8222;51.462;12.630;2023-08-30T07:04:39;17.80;99.90
16229;DHT22;8222;51.462;12.630;2023-08-30T07:07:05;18.00;99.90
16229;DHT22;8222;51.462;12.630;2023-08-30T07:09:33;18.00;99.90
16229;DHT22;8222;51.462;12.630;2023-08-30T07:11:59;18.00;99.90
16229;DHT22;8222;51.462;12.630;2023-08-30T07:14:25;17.70;99.90
16229;DHT22;8222;51.462;12.630;2023-08-30T07:16:51;18.00;99.90
16229;DHT22;8222;51.462;12.630;2023-08-30T07:19:22;17.90;99.90
16229;DHT22;8222;51.462;12.630;2023-08-30T07:21:58;17.90;99.90
16229;DHT22;8222;51.462;12.630;2023-08-30T07:24:26;17.90;99.90
16229;DHT22;8222;51.462;12.630;2023-08-30T07:26:59;18.00;99.90
16229;DHT22;8222;51.462;12.630;2023-08-30T07:29:25;18.20;99.90
16229;DHT22;8222;51.462;12.630;2023-08-30T07:31:50;18.40;99.90
16229;DHT22;8222;51.462;12.630;2023-08-30T07:34:18;18.50;99.90
16229;DHT22;8222;51.462;12.630;2023-08-30T07:36:47;18.70;99.90
16229;DHT22;8222;51.462;12.630;2023-08-30T07:39:15;18.80;99.90
16229;DHT22;8222;51.462;12.630;2023-08-30T07:41:46;19.10;99.90
16229;DHT22;8222;51.462;12.630;2023-08-30T07:44:14;19.40;99.90
16229;DHT22;8222;51.462;12.630;2023-08-30T07:46:42;19.40;99.90
16229;DHT22;8222;51.462;12.630;2023-08-30T07:49:10;19.60;99.90
16229;DHT22;8222;51.462;12.630;2023-08-30T07:51:38;19.70;99.90
16229;DHT22;8222;51.462;12.630;2023-08-30T07:54:06;19.80;99.90
16229;DHT22;8222;51.462;12.630;2023-08-30T07:56:34;19.90;99.90
16229;DHT22;8222;51.462;12.630;2023-08-30T07:59:08;19.90;99.90
16229;DHT22;8222;51.462;12.630;2023-08-30T08:01:37;19.90;99.90
16229;DHT22;8222;51.462;12.630;2023-08-30T08:04:03;20.00;99.90
16229;DHT22;8222;51.462;12.630;2023-08-30T08:06:28;19.90;99.90
16229;DHT22;8222;51.462;12.630;2023-08-30T08:08:56;19.90;99.90
16229;DHT22;8222;51.462;12.630;2023-08-30T08:11:25;20.00;99.90
16229;DHT22;8222;51.462;12.630;2023-08-30T08:13:51;20.10;99.90
16229;DHT22;8222;51.462;12.630;2023-08-30T08:16:17;20.20;99.90
16229;DHT22;8222;51.462;12.630;2023-08-30T08:18:45;20.30;99.90
16229;DHT22;8222;51.462;12.630;2023-08-30T08:21:10;20.30;99.90
16229;DHT22;8222;51.462;12.630;2023-08-30T08:23:43;20.20;99.90
16229;DHT22;8222;51.462;12.630;2023-08-30T08:26:09;20.30;99.90
16229;DHT22;8222;51.462;12.630;2023-08-30T08:28:37;20.30;99.90
16229;DHT22;8222;51.462;12.630;2023-08-30T08:31:05;20.40;99.90
16229;DHT22;8222;51.462;12.630;2023-08-30T08:33:37;20.50;99.90
16229;DHT22;8222;51.462;12.630;2023-08-30T08:36:05;20.50;99.90
16229;DHT22;8222;51.462;12.630;2023-08-30T08:38:31;20.90;99.90
16229;DHT22;8222;51.462;12.630;2023-08-30T08:41:05;20.80;99.90
16229;DHT22;8222;51.462;12.630;2023-08-30T08:43:33;21.10;99.90
16229;DHT22;8222;51.462;12.630;2023-08-30T08:46:02;21.40;99.90
16229;DHT22;8222;51.462;12.630;2023-08-30T08:48:29;21.60;99.90
16229;DHT22;8222;51.462;12.630;2023-08-30T08:50:59;21.50;99.90
16229;DHT22;8222;51.462;12.630;2023-08-30T08:53:28;21.40;99.90
16229;DHT22;8222;51.462;12.630;2023-08-30T08:55:58;21.40;99.90
16229;DHT22;8222;51.462;12.630;2023-08-30T08:58:24;21.30;99.90
16229;DHT22;8222;51.462;12.630;2023-08-30T09:00:51;21.20;99.90
16229;DHT22;8222;51.462;12.630;2023-08-30T09:03:20;21.20;99.90
16229;DHT22;8222;51.462;12.630;2023-08-30T09:05:47;21.20;99.90
16229;DHT22;8222;51.462;12.630;2023-08-30T09:08:24;21.60;99.90
16229;DHT22;8222;51.462;12.630;2023-08-30T09:10:51;21.50;99.90
16229;DHT22;8222;51.462;12.630;2023-08-30T09:13:20;21.50;99.90
16229;DHT22;8222;51.462;12.630;2023-08-30T09:15:48;21.90;99.90
16229;DHT22;8222;51.462;12.630;2023-08-30T09:18:18;22.00;99.90
16229;DHT22;8222;51.462;12.630;2023-08-30T09:20:49;21.90;99.90
16229;DHT22;8222;51.462;12.630;2023-08-30T09:23:23;21.90;99.90
16229;DHT22;8222;51.462;12.630;2023-08-30T09:25:56;21.80;99.90
16229;DHT22;8222;51.462;12.630;2023-08-30T09:28:22;21.70;99.90
16229;DHT22;8222;51.462;12.630;2023-08-30T09:30:54;21.70;99.90
16229;DHT22;8222;51.462;12.630;2023-08-30T09:33:23;21.70;99.90
16229;DHT22;8222;51.462;12.630;2023-08-30T09:35:53;21.90;99.90
16229;DHT22;8222;51.462;12.630;2023-08-30T09:38:21;22.00;99.90
16229;DHT22;8222;51.462;12.630;2023-08-30T09:40:49;22.00;99.90
16229;DHT22;8222;51.462;12.630;2023-08-30T09:43:21;22.10;99.90
16229;DHT22;8222;51.462;12.630;2023-08-30T09:45:52;22.60;99.90
16229;DHT22;8222;51.462;12.630;2023-08-30T09:48:30;23.30;99.90
16229;DHT22;8222;51.462;12.630;2023-08-30T09:51:04;23.40;99.90
16229;DHT22;8222;51.462;12.630;2023-08-30T09:53:33;23.50;99.90
16229;DHT22;8222;51.462;12.630;2023-08-30T09:56:02;23.70;99.90
16229;DHT22;8222;51.462;12.630;2023-08-30T09:58:28;23.90;99.90
16229;DHT22;8222;51.462;12.630;2023-08-30T10:00:55;23.90;99.90
16229;DHT22;8222;51.462;12.630;2023-08-30T10:03:27;23.70;99.90
16229;DHT22;8222;51.462;12.630;2023-08-30T10:05:56;23.50;99.90
16229;DHT22;8222;51.462;12.630;2023-08-30T10:08:29;23.30;99.90
16229;DHT22;8222;51.462;12.630;2023-08-30T10:11:00;23.10;99.90
16229;DHT22;8222;51.462;12.630;2023-08-30T10:13:29;23.30;99.90
16229;DHT22;8222;51.462;12.630;2023-08-30T10:16:01;23.50;99.90
16229;DHT22;8222;51.462;12.630;2023-08-30T10:18:32;23.80;99.90
16229;DHT22;8222;51.462;12.630;2023-08-30T10:21:07;23.70;99.90
16229;DHT22;8222;51.462;12.630;2023-08-30T10:23:36;23.80;99.90
16229;DHT22;8222;51.462;12.630;2023-08-30T10:26:03;24.10;99.90
16229;DHT22;8222;51.462;12.630;2023-08-30T10:28:34;24.30;99.90
16229;DHT22;8222;51.462;12.630;2023-08-30T10:31:03;24.40;99.90
16229;DHT22;8222;51.462;12.630;2023-08-30T10:33:29;24.40;99.90
16229;DHT22;8222;51.462;12.630;2023-08-30T10:36:04;24.50;99.90
16229;DHT22;8222;51.462;12.630;2023-08-30T10:38:33;24.50;99.20
16229;DHT22;8222;51.462;12.630;2023-08-30T10:41:09;24.80;99.90
16229;DHT22;8222;51.462;12.630;2023-08-30T10:43:36;24.90;99.90
16229;DHT22;8222;51.462;12.630;2023-08-30T10:46:04;24.80;98.00
16229;DHT22;8222;51.462;12.630;2023-08-30T10:48:37;25.20;99.10
16229;DHT22;8222;51.462;12.630;2023-08-30T10:51:02;25.30;97.20
16229;DHT22;8222;51.462;12.630;2023-08-30T10:53:32;25.30;93.70
16229;DHT22;8222;51.462;12.630;2023-08-30T10:56:11;25.20;94.70
16229;DHT22;8222;51.462;12.630;2023-08-30T10:58:45;25.30;94.00
16229;DHT22;8222;51.462;12.630;2023-08-30T11:01:11;25.20;95.20
16229;DHT22;8222;51.462;12.630;2023-08-30T11:03:43;25.20;94.50
16229;DHT22;8222;51.462;12.630;2023-08-30T11:06:18;25.10;94.40
16229;DHT22;8222;51.462;12.630;2023-08-30T11:08:43;25.00;93.30
16229;DHT22;8222;51.462;12.630;2023-08-30T11:11:12;24.90;91.60
16229;DHT22;8222;51.462;12.630;2023-08-30T11:13:40;24.90;90.10
16229;DHT22;8222;51.462;12.630;2023-08-30T11:16:08;25.10;93.70
16229;DHT22;8222;51.462;12.630;2023-08-30T11:18:37;25.30;94.90
16229;DHT22;8222;51.462;12.630;2023-08-30T11:21:05;25.60;91.60
16229;DHT22;8222;51.462;12.630;2023-08-30T11:23:34;25.80;91.00
16229;DHT22;8222;51.462;12.630;2023-08-30T11:26:01;25.80;90.60
16229;DHT22;8222;51.462;12.630;2023-08-30T11:28:34;25.90;92.20
16229;DHT22;8222;51.462;12.630;2023-08-30T11:31:02;26.20;92.80
16229;DHT22;8222;51.462;12.630;2023-08-30T11:33:28;26.20;87.30
16229;DHT22;8222;51.462;12.630;2023-08-30T11:35:56;26.30;87.10
16229;DHT22;8222;51.462;12.630;2023-08-30T11:38:24;26.50;86.90
16229;DHT22;8222;51.462;12.630;2023-08-30T11:40:50;26.50;84.30
16229;DHT22;8222;51.462;12.630;2023-08-30T11:43:16;26.20;86.80
16229;DHT22;8222;51.462;12.630;2023-08-30T11:45:47;25.90;90.00
16229;DHT22;8222;51.462;12.630;2023-08-30T11:48:20;25.80;89.00
16229;DHT22;8222;51.462;12.630;2023-08-30T11:50:46;25.80;91.00
16229;DHT22;8222;51.462;12.630;2023-08-30T11:53:12;25.70;91.00
16229;DHT22;8222;51.462;12.630;2023-08-30T11:55:40;25.60;91.10
16229;DHT22;8222;51.462;12.630;2023-08-30T11:58:09;25.60;89.20
16229;DHT22;8222;51.462;12.630;2023-08-30T12:00:34;25.60;90.00
16229;DHT22;8222;51.462;12.630;2023-08-30T12:03:05;25.70;86.10
16229;DHT22;8222;51.462;12.630;2023-08-30T12:05:34;25.60;83.50
16229;DHT22;8222;51.462;12.630;2023-08-30T12:08:02;25.60;86.70
16229;DHT22;8222;51.462;12.630;2023-08-30T12:10:32;25.80;91.30
16229;DHT22;8222;51.462;12.630;2023-08-30T12:13:01;25.90;91.70
16229;DHT22;8222;51.462;12.630;2023-08-30T12:15:28;25.60;91.30
16229;DHT22;8222;51.462;12.630;2023-08-30T12:18:06;25.50;91.00
16229;DHT22;8222;51.462;12.630;2023-08-30T12:20:32;25.20;90.00
16229;DHT22;8222;51.462;12.630;2023-08-30T12:22:58;25.00;91.00
16229;DHT22;8222;51.462;12.630;2023-08-30T12:25:26;24.90;92.10
16229;DHT22;8222;51.462;12.630;2023-08-30T12:27:56;25.20;93.50
16229;DHT22;8222;51.462;12.630;2023-08-30T12:30:24;25.20;92.30
16229;DHT22;8222;51.462;12.630;2023-08-30T12:33:00;25.30;93.90
16229;DHT22;8222;51.462;12.630;2023-08-30T12:35:31;25.50;93.00
16229;DHT22;8222;51.462;12.630;2023-08-30T12:38:00;25.50;88.30
16229;DHT22;8222;51.462;12.630;2023-08-30T12:40:25;25.40;88.30
16229;DHT22;8222;51.462;12.630;2023-08-30T12:42:51;25.30;87.20
16229;DHT22;8222;51.462;12.630;2023-08-30T12:45:17;25.40;88.70
16229;DHT22;8222;51.462;12.630;2023-08-30T12:47:47;25.20;86.60
16229;DHT22;8222;51.462;12.630;2023-08-30T12:50:13;25.50;84.90
16229;DHT22;8222;51.462;12.630;2023-08-30T12:52:38;25.60;80.80
16229;DHT22;8222;51.462;12.630;2023-08-30T12:55:08;25.50;81.40
16229;DHT22;8222;51.462;12.630;2023-08-30T12:57:36;25.50;81.60
16229;DHT22;8222;51.462;12.630;2023-08-30T13:00:04;25.40;83.20
16229;DHT22;8222;51.462;12.630;2023-08-30T13:02:34;25.40;87.60
16229;DHT22;8222;51.462;12.630;2023-08-30T13:05:00;25.60;84.10
16229;DHT22;8222;51.462;12.630;2023-08-30T13:07:28;25.70;83.40
16229;DHT22;8222;51.462;12.630;2023-08-30T13:09:54;25.70;82.10
16229;DHT22;8222;51.462;12.630;2023-08-30T13:12:19;25.40;82.10
16229;DHT22;8222;51.462;12.630;2023-08-30T13:14:45;25.30;80.70
16229;DHT22;8222;51.462;12.630;2023-08-30T13:17:13;25.20;79.70
16229;DHT22;8222;51.462;12.630;2023-08-30T13:19:45;25.30;82.80
16229;DHT22;8222;51.462;12.630;2023-08-30T13:22:11;25.30;80.00
16229;DHT22;8222;51.462;12.630;2023-08-30T13:24:36;25.20;80.10
16229;DHT22;8222;51.462;12.630;2023-08-30T13:27:03;25.20;83.00
16229;DHT22;8222;51.462;12.630;2023-08-30T13:29:31;25.40;86.80
16229;DHT22;8222;51.462;12.630;2023-08-30T13:31:57;25.30;86.90
16229;DHT22;8222;51.462;12.630;2023-08-30T13:34:25;25.10;83.90
16229;DHT22;8222;51.462;12.630;2023-08-30T13:36:55;25.20;89.30
16229;DHT22;8222;51.462;12.630;2023-08-30T13:39:21;25.40;87.50
16229;DHT22;8222;51.462;12.630;2023-08-30T13:41:50;25.40;82.50
16229;DHT22;8222;51.462;12.630;2023-08-30T13:44:16;25.20;87.90
16229;DHT22;8222;51.462;12.630;2023-08-30T13:46:46;24.80;83.60
16229;DHT22;8222;51.462;12.630;2023-08-30T13:49:17;24.70;86.40
16229;DHT22;8222;51.462;12.630;2023-08-30T13:51:44;24.80;85.40
16229;DHT22;8222;51.462;12.630;2023-08-30T13:54:12;25.00;88.60
16229;DHT22;8222;51.462;12.630;2023-08-30T13:56:40;25.20;89.10
16229;DHT22;8222;51.462;12.630;2023-08-30T13:59:11;25.10;85.50
16229;DHT22;8222;51.462;12.630;2023-08-30T14:01:39;24.90;86.70
16229;DHT22;8222;51.462;12.630;2023-08-30T14:04:05;25.00;87.10
16229;DHT22;8222;51.462;12.630;2023-08-30T14:06:33;24.90;85.30
16229;DHT22;8222;51.462;12.630;2023-08-30T14:09:02;24.90;89.20
16229;DHT22;8222;51.462;12.630;2023-08-30T14:11:29;25.00;89.30
16229;DHT22;8222;51.462;12.630;2023-08-30T14:13:57;25.20;85.70
16229;DHT22;8222;51.462;12.630;2023-08-30T14:16:27;25.20;90.20
16229;DHT22;8222;51.462;12.630;2023-08-30T14:18:54;25.30;84.40
16229;DHT22;8222;51.462;12.630;2023-08-30T14:21:20;25.30;83.40
16229;DHT22;8222;51.462;12.630;2023-08-30T14:23:48;25.30;84.40
16229;DHT22;8222;51.462;12.630;2023-08-30T14:26:16;25.50;85.50
16229;DHT22;8222;51.462;12.630;2023-08-30T14:28:49;25.40;83.40
16229;DHT22;8222;51.462;12.630;2023-08-30T14:31:14;25.40;84.00
16229;DHT22;8222;51.462;12.630;2023-08-30T14:33:43;25.10;84.70
16229;DHT22;8222;51.462;12.630;2023-08-30T14:36:10;25.00;84.40
16229;DHT22;8222;51.462;12.630;2023-08-30T14:38:39;24.80;85.40
16229;DHT22;8222;51.462;12.630;2023-08-30T14:41:08;24.70;85.10
16229;DHT22;8222;51.462;12.630;2023-08-30T14:43:38;24.60;84.30
16229;DHT22;8222;51.462;12.630;2023-08-30T14:46:06;24.50;84.60
16229;DHT22;8222;51.462;12.630;2023-08-30T14:48:35;24.80;88.20
16229;DHT22;8222;51.462;12.630;2023-08-30T14:51:05;24.90;87.00
16229;DHT22;8222;51.462;12.630;2023-08-30T14:53:32;25.10;86.60
16229;DHT22;8222;51.462;12.630;2023-08-30T14:55:58;25.10;84.70
16229;DHT22;8222;51.462;12.630;2023-08-30T14:58:24;25.20;88.10
16229;DHT22;8222;51.462;12.630;2023-08-30T15:01:31;25.30;82.50
16229;DHT22;8222;51.462;12.630;2023-08-30T15:03:57;25.20;80.00
16229;DHT22;8222;51.462;12.630;2023-08-30T15:06:26;25.00;80.90
16229;DHT22;8222;51.462;12.630;2023-08-30T15:08:52;25.00;83.60
16229;DHT22;8222;51.462;12.630;2023-08-30T15:11:18;25.00;81.00
16229;DHT22;8222;51.462;12.630;2023-08-30T15:13:46;25.10;79.30
16229;DHT22;8222;51.462;12.630;2023-08-30T15:16:11;25.10;79.70
16229;DHT22;8222;51.462;12.630;2023-08-30T15:18:37;25.20;79.30
16229;DHT22;8222;51.462;12.630;2023-08-30T15:21:03;25.00;78.30
16229;DHT22;8222;51.462;12.630;2023-08-30T15:23:31;24.90;80.20
16229;DHT22;8222;51.462;12.630;2023-08-30T15:26:05;24.80;79.10
16229;DHT22;8222;51.462;12.630;2023-08-30T15:28:33;24.90;82.80
16229;DHT22;8222;51.462;12.630;2023-08-30T15:31:01;25.00;83.00
16229;DHT22;8222;51.462;12.630;2023-08-30T15:33:28;25.10;78.80
16229;DHT22;8222;51.462;12.630;2023-08-30T15:35:57;25.00;78.10
16229;DHT22;8222;51.462;12.630;2023-08-30T15:38:25;24.90;77.50
16229;DHT22;8222;51.462;12.630;2023-08-30T15:40:54;24.70;76.70
16229;DHT22;8222;51.462;12.630;2023-08-30T15:43:21;24.50;79.30